sensor_id;sensor_type;location;lat;lon;timestamp;P1;durP1;ratioP1;P2;durP2;ratioP2
28174;SDS011;59417;44.788;10.334;2024-01-25T00:00:55;33.07;;;20.97;;
28174;SDS011;59417;44.788;10.334;2024-01-25T00:03:21;28.42;;;21.63;;
28174;SDS011;59417;44.788;10.334;2024-01-25T00:05:47;39.80;;;23.15;;
28174;SDS011;59417;44.788;10.334;2024-01-25T00:08:16;38.35;;;23.45;;
28174;SDS011;59417;44.788;10.334;2024-01-25T00:10:43;30.85;;;21.45;;
28174;SDS011;59417;44.788;10.334;2024-01-25T00:13:09;31.00;;;22.38;;
28174;SDS011;59417;44.788;10.334;2024-01-25T00:15:34;30.55;;;20.85;;
28174;SDS011;59417;44.788;10.334;2024-01-25T00:18:00;28.23;;;19.92;;
28174;SDS011;59417;44.788;10.334;2024-01-25T00:20:26;33.03;;;21.00;;
28174;SDS011;59417;44.788;10.334;2024-01-25T00:22:52;32.90;;;21.80;;
28174;SDS011;59417;44.788;10.334;2024-01-25T00:25:21;31.23;;;21.48;;
28174;SDS011;59417;44.788;10.334;2024-01-25T00:27:47;38.63;;;21.05;;
28174;SDS011;59417;44.788;10.334;2024-01-25T00:30:15;31.75;;;21.73;;
28174;SDS011;59417;44.788;10.334;2024-01-25T00:32:42;38.28;;;21.40;;
28174;SDS011;59417;44.788;10.334;2024-01-25T00:35:08;33.50;;;21.50;;
28174;SDS011;59417;44.788;10.334;2024-01-25T00:37:36;34.08;;;21.33;;
28174;SDS011;59417;44.788;10.334;2024-01-25T00:40:02;28.48;;;20.10;;
28174;SDS011;59417;44.788;10.334;2024-01-25T00:42:29;35.42;;;20.63;;
28174;SDS011;59417;44.788;10.334;2024-01-25T00:45:05;33.65;;;19.77;;
28174;SDS011;59417;44.788;10.334;2024-01-25T00:47:32;29.02;;;19.48;;
28174;SDS011;59417;44.788;10.334;2024-01-25T00:50:03;30.95;;;20.48;;
28174;SDS011;59417;44.788;10.334;2024-01-25T00:52:29;28.08;;;19.45;;
28174;SDS011;59417;44.788;10.334;2024-01-25T00:54:58;30.45;;;21.10;;
28174;SDS011;59417;44.788;10.334;2024-01-25T00:57:31;24.85;;;18.33;;
28174;SDS011;59417;44.788;10.334;2024-01-25T01:00:07;28.27;;;18.83;;
28174;SDS011;59417;44.788;10.334;2024-01-25T01:02:43;29.23;;;19.23;;
28174;SDS011;59417;44.788;10.334;2024-01-25T01:07:41;31.15;;;18.77;;
28174;SDS011;59417;44.788;10.334;2024-01-25T01:10:10;30.92;;;18.10;;
28174;SDS011;59417;44.788;10.334;2024-01-25T01:12:36;28.00;;;17.50;;
28174;SDS011;59417;44.788;10.334;2024-01-25T01:15:02;30.63;;;19.27;;
28174;SDS011;59417;44.788;10.334;2024-01-25T01:17:29;30.27;;;17.60;;
28174;SDS011;59417;44.788;10.334;2024-01-25T01:19:55;26.77;;;17.40;;
28174;SDS011;59417;44.788;10.334;2024-01-25T01:22:21;27.35;;;18.08;;
28174;SDS011;59417;44.788;10.334;2024-01-25T01:24:47;28.23;;;17.95;;
28174;SDS011;59417;44.788;10.334;2024-01-25T01:27:12;28.13;;;18.00;;
28174;SDS011;59417;44.788;10.334;2024-01-25T01:29:38;27.20;;;17.80;;
28174;SDS011;59417;44.788;10.334;2024-01-25T01:32:04;26.33;;;18.00;;
28174;SDS011;59417;44.788;10.334;2024-01-25T01:34:30;21.92;;;17.25;;
28174;SDS011;59417;44.788;10.334;2024-01-25T01:37:05;28.27;;;17.70;;
28174;SDS011;59417;44.788;10.334;2024-01-25T01:39:34;29.77;;;17.02;;
28174;SDS011;59417;44.788;10.334;2024-01-25T01:42:00;23.00;;;16.05;;
28174;SDS011;59417;44.788;10.334;2024-01-25T01:44:29;24.63;;;16.95;;
28174;SDS011;59417;44.788;10.334;2024-01-25T01:46:58;27.23;;;16.98;;
28174;SDS011;59417;44.788;10.334;2024-01-25T01:49:32;26.02;;;17.50;;
28174;SDS011;59417;44.788;10.334;2024-01-25T01:52:00;25.38;;;16.60;;
28174;SDS011;59417;44.788;10.334;2024-01-25T01:54:30;25.05;;;17.17;;
28174;SDS011;59417;44.788;10.334;2024-01-25T01:56:56;36.30;;;19.38;;
28174;SDS011;59417;44.788;10.334;2024-01-25T01:59:22;31.80;;;19.25;;
28174;SDS011;59417;44.788;10.334;2024-01-25T02:01:51;23.58;;;18.05;;
28174;SDS011;59417;44.788;10.334;2024-01-25T02:04:17;25.60;;;17.40;;
28174;SDS011;59417;44.788;10.334;2024-01-25T02:06:46;26.77;;;18.70;;
28174;SDS011;59417;44.788;10.334;2024-01-25T02:09:12;24.17;;;18.38;;
28174;SDS011;59417;44.788;10.334;2024-01-25T02:11:38;27.30;;;17.95;;
28174;SDS011;59417;44.788;10.334;2024-01-25T02:14:04;30.50;;;17.40;;
28174;SDS011;59417;44.788;10.334;2024-01-25T02:16:31;24.20;;;17.08;;
28174;SDS011;59417;44.788;10.334;2024-01-25T02:19:00;31.40;;;17.95;;
28174;SDS011;59417;44.788;10.334;2024-01-25T02:21:26;26.08;;;18.17;;
28174;SDS011;59417;44.788;10.334;2024-01-25T02:23:52;26.27;;;17.73;;
28174;SDS011;59417;44.788;10.334;2024-01-25T02:26:18;26.38;;;17.13;;
28174;SDS011;59417;44.788;10.334;2024-01-25T02:28:47;29.83;;;18.27;;
28174;SDS011;59417;44.788;10.334;2024-01-25T02:31:14;30.95;;;18.33;;
28174;SDS011;59417;44.788;10.334;2024-01-25T02:33:40;28.70;;;17.58;;
28174;SDS011;59417;44.788;10.334;2024-01-25T02:36:06;27.67;;;17.08;;
28174;SDS011;59417;44.788;10.334;2024-01-25T02:38:32;26.00;;;16.55;;
28174;SDS011;59417;44.788;10.334;2024-01-25T02:40:58;27.90;;;17.85;;
28174;SDS011;59417;44.788;10.334;2024-01-25T02:43:24;29.73;;;17.60;;
28174;SDS011;59417;44.788;10.334;2024-01-25T02:45:50;29.50;;;18.05;;
28174;SDS011;59417;44.788;10.334;2024-01-25T02:48:16;25.80;;;17.58;;
28174;SDS011;59417;44.788;10.334;2024-01-25T02:50:42;25.55;;;17.27;;
28174;SDS011;59417;44.788;10.334;2024-01-25T02:53:08;22.90;;;16.73;;
28174;SDS011;59417;44.788;10.334;2024-01-25T02:55:36;28.58;;;17.58;;
28174;SDS011;59417;44.788;10.334;2024-01-25T02:58:02;22.38;;;16.50;;
28174;SDS011;59417;44.788;10.334;2024-01-25T03:00:28;25.58;;;17.35;;
28174;SDS011;59417;44.788;10.334;2024-01-25T03:02:55;22.13;;;15.82;;
28174;SDS011;59417;44.788;10.334;2024-01-25T03:05:21;27.55;;;16.38;;
28174;SDS011;59417;44.788;10.334;2024-01-25T03:07:50;24.98;;;16.23;;
28174;SDS011;59417;44.788;10.334;2024-01-25T03:10:16;26.35;;;17.77;;
28174;SDS011;59417;44.788;10.334;2024-01-25T03:12:45;27.05;;;16.65;;
28174;SDS011;59417;44.788;10.334;2024-01-25T03:15:11;26.95;;;17.05;;
28174;SDS011;59417;44.788;10.334;2024-01-25T03:17:40;26.43;;;17.07;;
28174;SDS011;59417;44.788;10.334;2024-01-25T03:20:06;23.95;;;16.83;;
28174;SDS011;59417;44.788;10.334;2024-01-25T03:22:32;23.42;;;16.63;;
28174;SDS011;59417;44.788;10.334;2024-01-25T03:25:01;25.58;;;16.60;;
28174;SDS011;59417;44.788;10.334;2024-01-25T03:27:27;25.02;;;16.20;;
28174;SDS011;59417;44.788;10.334;2024-01-25T03:29:53;24.23;;;16.42;;
28174;SDS011;59417;44.788;10.334;2024-01-25T03:32:19;23.20;;;16.98;;
28174;SDS011;59417;44.788;10.334;2024-01-25T03:34:47;23.65;;;16.17;;
28174;SDS011;59417;44.788;10.334;2024-01-25T03:37:18;21.35;;;17.33;;
28174;SDS011;59417;44.788;10.334;2024-01-25T03:39:44;26.50;;;17.88;;
28174;SDS011;59417;44.788;10.334;2024-01-25T03:42:11;27.38;;;17.13;;
28174;SDS011;59417;44.788;10.334;2024-01-25T03:44:37;24.52;;;18.40;;
28174;SDS011;59417;44.788;10.334;2024-01-25T03:47:09;28.45;;;19.05;;
28174;SDS011;59417;44.788;10.334;2024-01-25T03:49:36;28.95;;;19.70;;
28174;SDS011;59417;44.788;10.334;2024-01-25T03:52:06;30.10;;;20.10;;
28174;SDS011;59417;44.788;10.334;2024-01-25T03:54:40;27.65;;;18.95;;
28174;SDS011;59417;44.788;10.334;2024-01-25T03:57:13;27.90;;;18.95;;
28174;SDS011;59417;44.788;10.334;2024-01-25T03:59:40;28.73;;;20.15;;
28174;SDS011;59417;44.788;10.334;2024-01-25T04:02:08;26.30;;;18.77;;
28174;SDS011;59417;44.788;10.334;2024-01-25T04:04:38;25.85;;;18.65;;
28174;SDS011;59417;44.788;10.334;2024-01-25T04:07:05;32.38;;;19.05;;
28174;SDS011;59417;44.788;10.334;2024-01-25T04:09:32;29.48;;;18.02;;
28174;SDS011;59417;44.788;10.334;2024-01-25T04:11:59;32.33;;;20.33;;
28174;SDS011;59417;44.788;10.334;2024-01-25T04:14:26;26.83;;;20.23;;
28174;SDS011;59417;44.788;10.334;2024-01-25T04:16:54;31.08;;;20.10;;
28174;SDS011;59417;44.788;10.334;2024-01-25T04:19:21;29.65;;;20.73;;
28174;SDS011;59417;44.788;10.334;2024-01-25T04:21:52;34.10;;;22.05;;
28174;SDS011;59417;44.788;10.334;2024-01-25T04:24:20;33.05;;;20.73;;
28174;SDS011;59417;44.788;10.334;2024-01-25T04:26:46;32.90;;;20.60;;
28174;SDS011;59417;44.788;10.334;2024-01-25T04:29:14;34.97;;;23.98;;
28174;SDS011;59417;44.788;10.334;2024-01-25T04:31:44;33.83;;;23.30;;
28174;SDS011;59417;44.788;10.334;2024-01-25T04:34:14;40.17;;;23.63;;
28174;SDS011;59417;44.788;10.334;2024-01-25T04:36:47;37.65;;;24.63;;
28174;SDS011;59417;44.788;10.334;2024-01-25T04:39:17;34.28;;;23.50;;
28174;SDS011;59417;44.788;10.334;2024-01-25T04:41:43;31.48;;;22.65;;
28174;SDS011;59417;44.788;10.334;2024-01-25T04:44:13;39.53;;;24.80;;
28174;SDS011;59417;44.788;10.334;2024-01-25T04:46:42;39.13;;;24.73;;
28174;SDS011;59417;44.788;10.334;2024-01-25T04:49:08;47.58;;;26.25;;
28174;SDS011;59417;44.788;10.334;2024-01-25T04:51:34;39.80;;;26.95;;
28174;SDS011;59417;44.788;10.334;2024-01-25T04:54:03;39.75;;;24.77;;
28174;SDS011;59417;44.788;10.334;2024-01-25T04:56:29;35.25;;;22.60;;
28174;SDS011;59417;44.788;10.334;2024-01-25T04:58:55;40.53;;;24.35;;
28174;SDS011;59417;44.788;10.334;2024-01-25T05:01:24;38.88;;;26.27;;
28174;SDS011;59417;44.788;10.334;2024-01-25T05:03:50;36.83;;;22.25;;
28174;SDS011;59417;44.788;10.334;2024-01-25T05:06:16;31.58;;;22.35;;
28174;SDS011;59417;44.788;10.334;2024-01-25T05:08:42;31.55;;;21.65;;
28174;SDS011;59417;44.788;10.334;2024-01-25T05:11:10;32.20;;;22.83;;
28174;SDS011;59417;44.788;10.334;2024-01-25T05:13:36;35.53;;;21.17;;
28174;SDS011;59417;44.788;10.334;2024-01-25T05:16:02;32.42;;;22.13;;
28174;SDS011;59417;44.788;10.334;2024-01-25T05:18:29;33.15;;;19.90;;
28174;SDS011;59417;44.788;10.334;2024-01-25T05:20:56;35.35;;;22.30;;
28174;SDS011;59417;44.788;10.334;2024-01-25T05:23:24;36.40;;;23.58;;
28174;SDS011;59417;44.788;10.334;2024-01-25T05:25:52;41.38;;;23.95;;
28174;SDS011;59417;44.788;10.334;2024-01-25T05:28:22;33.88;;;22.58;;
28174;SDS011;59417;44.788;10.334;2024-01-25T05:30:50;40.05;;;24.20;;
28174;SDS011;59417;44.788;10.334;2024-01-25T05:33:17;34.10;;;22.85;;
28174;SDS011;59417;44.788;10.334;2024-01-25T05:35:47;30.45;;;21.25;;
28174;SDS011;59417;44.788;10.334;2024-01-25T05:38:19;32.58;;;21.83;;
28174;SDS011;59417;44.788;10.334;2024-01-25T05:40:46;37.67;;;23.85;;
28174;SDS011;59417;44.788;10.334;2024-01-25T05:43:13;33.15;;;22.63;;
28174;SDS011;59417;44.788;10.334;2024-01-25T05:45:38;33.42;;;21.95;;
28174;SDS011;59417;44.788;10.334;2024-01-25T05:48:05;35.78;;;22.83;;
28174;SDS011;59417;44.788;10.334;2024-01-25T05:50:32;36.50;;;25.83;;
28174;SDS011;59417;44.788;10.334;2024-01-25T05:53:00;42.00;;;25.73;;
28174;SDS011;59417;44.788;10.334;2024-01-25T05:55:31;39.70;;;25.23;;
28174;SDS011;59417;44.788;10.334;2024-01-25T05:57:58;42.50;;;26.27;;
28174;SDS011;59417;44.788;10.334;2024-01-25T06:03:01;40.63;;;25.17;;
28174;SDS011;59417;44.788;10.334;2024-01-25T06:05:33;39.47;;;25.55;;
28174;SDS011;59417;44.788;10.334;2024-01-25T06:08:00;43.80;;;26.63;;
28174;SDS011;59417;44.788;10.334;2024-01-25T06:10:26;40.65;;;27.38;;
28174;SDS011;59417;44.788;10.334;2024-01-25T06:12:55;40.88;;;27.17;;
28174;SDS011;59417;44.788;10.334;2024-01-25T06:15:22;40.70;;;27.25;;
28174;SDS011;59417;44.788;10.334;2024-01-25T06:17:49;45.13;;;28.65;;
28174;SDS011;59417;44.788;10.334;2024-01-25T06:20:15;43.60;;;27.38;;
28174;SDS011;59417;44.788;10.334;2024-01-25T06:22:52;36.15;;;25.35;;
28174;SDS011;59417;44.788;10.334;2024-01-25T06:25:19;45.55;;;28.02;;
28174;SDS011;59417;44.788;10.334;2024-01-25T06:27:44;43.63;;;26.50;;
28174;SDS011;59417;44.788;10.334;2024-01-25T06:30:13;48.58;;;29.60;;
28174;SDS011;59417;44.788;10.334;2024-01-25T06:32:40;36.92;;;25.65;;
28174;SDS011;59417;44.788;10.334;2024-01-25T06:35:08;49.75;;;28.63;;
28174;SDS011;59417;44.788;10.334;2024-01-25T06:37:38;42.13;;;26.25;;
28174;SDS011;59417;44.788;10.334;2024-01-25T06:40:22;41.15;;;25.42;;
28174;SDS011;59417;44.788;10.334;2024-01-25T06:43:15;43.13;;;25.35;;
28174;SDS011;59417;44.788;10.334;2024-01-25T06:45:43;41.15;;;26.15;;
28174;SDS011;59417;44.788;10.334;2024-01-25T06:48:12;40.87;;;26.67;;
28174;SDS011;59417;44.788;10.334;2024-01-25T06:50:38;43.95;;;27.75;;
28174;SDS011;59417;44.788;10.334;2024-01-25T06:53:04;40.38;;;26.83;;
28174;SDS011;59417;44.788;10.334;2024-01-25T06:55:31;36.78;;;25.55;;
28174;SDS011;59417;44.788;10.334;2024-01-25T06:57:59;40.80;;;25.52;;
28174;SDS011;59417;44.788;10.334;2024-01-25T07:00:27;39.17;;;25.48;;
28174;SDS011;59417;44.788;10.334;2024-01-25T07:02:53;39.85;;;26.58;;
28174;SDS011;59417;44.788;10.334;2024-01-25T07:05:19;36.78;;;24.33;;
28174;SDS011;59417;44.788;10.334;2024-01-25T07:07:45;36.25;;;24.23;;
28174;SDS011;59417;44.788;10.334;2024-01-25T07:10:19;37.35;;;23.38;;
28174;SDS011;59417;44.788;10.334;2024-01-25T07:12:45;34.45;;;23.10;;
28174;SDS011;59417;44.788;10.334;2024-01-25T07:15:11;40.45;;;24.77;;
28174;SDS011;59417;44.788;10.334;2024-01-25T07:17:38;37.92;;;24.15;;
28174;SDS011;59417;44.788;10.334;2024-01-25T07:20:08;36.17;;;23.70;;
28174;SDS011;59417;44.788;10.334;2024-01-25T07:22:37;36.30;;;24.13;;
28174;SDS011;59417;44.788;10.334;2024-01-25T07:25:04;36.22;;;23.60;;
28174;SDS011;59417;44.788;10.334;2024-01-25T07:27:30;38.90;;;23.83;;
28174;SDS011;59417;44.788;10.334;2024-01-25T07:30:00;33.67;;;23.35;;
28174;SDS011;59417;44.788;10.334;2024-01-25T07:32:29;40.88;;;24.10;;
28174;SDS011;59417;44.788;10.334;2024-01-25T07:35:01;35.05;;;23.98;;
28174;SDS011;59417;44.788;10.334;2024-01-25T07:37:32;37.00;;;24.95;;
28174;SDS011;59417;44.788;10.334;2024-01-25T07:40:01;37.33;;;23.25;;
28174;SDS011;59417;44.788;10.334;2024-01-25T07:42:34;44.50;;;26.45;;
28174;SDS011;59417;44.788;10.334;2024-01-25T07:45:01;34.00;;;24.25;;
28174;SDS011;59417;44.788;10.334;2024-01-25T07:47:28;33.78;;;22.95;;
28174;SDS011;59417;44.788;10.334;2024-01-25T07:49:59;32.45;;;24.30;;
28174;SDS011;59417;44.788;10.334;2024-01-25T07:52:29;41.10;;;25.73;;
28174;SDS011;59417;44.788;10.334;2024-01-25T07:54:59;30.58;;;23.73;;
28174;SDS011;59417;44.788;10.334;2024-01-25T07:57:31;39.58;;;25.73;;
28174;SDS011;59417;44.788;10.334;2024-01-25T08:02:33;39.88;;;23.92;;
28174;SDS011;59417;44.788;10.334;2024-01-25T08:05:07;37.13;;;24.83;;
28174;SDS011;59417;44.788;10.334;2024-01-25T08:07:35;32.63;;;23.85;;
28174;SDS011;59417;44.788;10.334;2024-01-25T08:10:04;38.77;;;26.10;;
28174;SDS011;59417;44.788;10.334;2024-01-25T08:12:34;34.72;;;23.88;;
28174;SDS011;59417;44.788;10.334;2024-01-25T08:15:01;33.63;;;23.70;;
28174;SDS011;59417;44.788;10.334;2024-01-25T08:17:30;35.83;;;23.52;;
28174;SDS011;59417;44.788;10.334;2024-01-25T08:20:04;41.95;;;25.30;;
28174;SDS011;59417;44.788;10.334;2024-01-25T08:22:35;35.53;;;23.27;;
28174;SDS011;59417;44.788;10.334;2024-01-25T08:25:02;41.03;;;27.05;;
28174;SDS011;59417;44.788;10.334;2024-01-25T08:27:30;46.13;;;29.80;;
28174;SDS011;59417;44.788;10.334;2024-01-25T08:29:59;43.10;;;29.35;;
28174;SDS011;59417;44.788;10.334;2024-01-25T08:32:25;35.30;;;27.63;;
28174;SDS011;59417;44.788;10.334;2024-01-25T08:34:52;48.63;;;30.10;;
28174;SDS011;59417;44.788;10.334;2024-01-25T08:37:19;48.28;;;30.83;;
28174;SDS011;59417;44.788;10.334;2024-01-25T08:39:47;49.63;;;32.60;;
28174;SDS011;59417;44.788;10.334;2024-01-25T08:42:18;47.78;;;29.20;;
28174;SDS011;59417;44.788;10.334;2024-01-25T08:44:44;45.80;;;28.40;;
28174;SDS011;59417;44.788;10.334;2024-01-25T08:47:20;40.40;;;26.13;;
28174;SDS011;59417;44.788;10.334;2024-01-25T08:49:47;44.03;;;29.60;;
28174;SDS011;59417;44.788;10.334;2024-01-25T08:52:18;39.72;;;27.45;;
28174;SDS011;59417;44.788;10.334;2024-01-25T08:54:46;42.40;;;28.58;;
28174;SDS011;59417;44.788;10.334;2024-01-25T08:57:12;44.53;;;30.25;;
28174;SDS011;59417;44.788;10.334;2024-01-25T08:59:44;46.75;;;30.23;;
28174;SDS011;59417;44.788;10.334;2024-01-25T09:02:10;54.00;;;35.78;;
28174;SDS011;59417;44.788;10.334;2024-01-25T09:04:37;59.45;;;37.00;;
28174;SDS011;59417;44.788;10.334;2024-01-25T09:07:03;58.13;;;35.63;;
28174;SDS011;59417;44.788;10.334;2024-01-25T09:09:31;54.53;;;37.42;;
28174;SDS011;59417;44.788;10.334;2024-01-25T09:11:58;53.57;;;35.53;;
28174;SDS011;59417;44.788;10.334;2024-01-25T09:14:29;55.70;;;37.40;;
28174;SDS011;59417;44.788;10.334;2024-01-25T09:16:57;55.42;;;37.53;;
28174;SDS011;59417;44.788;10.334;2024-01-25T09:19:26;56.00;;;37.88;;
28174;SDS011;59417;44.788;10.334;2024-01-25T09:21:55;53.45;;;37.00;;
28174;SDS011;59417;44.788;10.334;2024-01-25T09:24:24;62.47;;;38.80;;
28174;SDS011;59417;44.788;10.334;2024-01-25T09:26:50;59.25;;;39.13;;
28174;SDS011;59417;44.788;10.334;2024-01-25T09:29:16;56.58;;;39.22;;
28174;SDS011;59417;44.788;10.334;2024-01-25T09:31:42;68.70;;;42.63;;
28174;SDS011;59417;44.788;10.334;2024-01-25T09:34:11;60.63;;;42.20;;
28174;SDS011;59417;44.788;10.334;2024-01-25T09:36:37;64.93;;;42.60;;
28174;SDS011;59417;44.788;10.334;2024-01-25T09:39:03;68.90;;;43.55;;
28174;SDS011;59417;44.788;10.334;2024-01-25T09:41:30;59.95;;;42.03;;
28174;SDS011;59417;44.788;10.334;2024-01-25T09:44:00;66.80;;;43.38;;
28174;SDS011;59417;44.788;10.334;2024-01-25T09:46:27;62.25;;;42.53;;
28174;SDS011;59417;44.788;10.334;2024-01-25T09:48:56;62.88;;;42.90;;
28174;SDS011;59417;44.788;10.334;2024-01-25T09:51:26;53.27;;;41.63;;
28174;SDS011;59417;44.788;10.334;2024-01-25T09:53:52;61.15;;;42.22;;
28174;SDS011;59417;44.788;10.334;2024-01-25T09:56:51;59.80;;;42.10;;
28174;SDS011;59417;44.788;10.334;2024-01-25T09:59:45;57.55;;;39.35;;
28174;SDS011;59417;44.788;10.334;2024-01-25T10:02:11;58.05;;;39.17;;
28174;SDS011;59417;44.788;10.334;2024-01-25T10:04:38;58.85;;;38.47;;
28174;SDS011;59417;44.788;10.334;2024-01-25T10:09:42;55.00;;;37.80;;
28174;SDS011;59417;44.788;10.334;2024-01-25T10:12:09;64.65;;;42.35;;
28174;SDS011;59417;44.788;10.334;2024-01-25T10:14:35;59.75;;;41.95;;
28174;SDS011;59417;44.788;10.334;2024-01-25T10:17:04;59.78;;;41.50;;
28174;SDS011;59417;44.788;10.334;2024-01-25T10:19:31;65.20;;;42.40;;
28174;SDS011;59417;44.788;10.334;2024-01-25T10:22:06;60.03;;;42.42;;
28174;SDS011;59417;44.788;10.334;2024-01-25T10:24:37;58.35;;;42.40;;
28174;SDS011;59417;44.788;10.334;2024-01-25T10:27:09;66.07;;;41.17;;
28174;SDS011;59417;44.788;10.334;2024-01-25T10:29:39;59.83;;;37.58;;
28174;SDS011;59417;44.788;10.334;2024-01-25T10:32:09;59.97;;;41.45;;
28174;SDS011;59417;44.788;10.334;2024-01-25T10:34:54;59.00;;;42.08;;
28174;SDS011;59417;44.788;10.334;2024-01-25T10:37:21;60.00;;;41.88;;
28174;SDS011;59417;44.788;10.334;2024-01-25T10:39:48;62.38;;;41.85;;
28174;SDS011;59417;44.788;10.334;2024-01-25T10:42:15;55.63;;;41.08;;
28174;SDS011;59417;44.788;10.334;2024-01-25T10:47:24;67.88;;;43.08;;
28174;SDS011;59417;44.788;10.334;2024-01-25T10:50:03;66.32;;;44.35;;
28174;SDS011;59417;44.788;10.334;2024-01-25T10:52:41;64.53;;;42.40;;
28174;SDS011;59417;44.788;10.334;2024-01-25T10:55:28;72.80;;;45.53;;
28174;SDS011;59417;44.788;10.334;2024-01-25T10:57:54;64.63;;;43.97;;
28174;SDS011;59417;44.788;10.334;2024-01-25T11:00:20;62.65;;;43.67;;
28174;SDS011;59417;44.788;10.334;2024-01-25T11:02:51;69.28;;;46.30;;
28174;SDS011;59417;44.788;10.334;2024-01-25T11:05:29;69.25;;;45.25;;
28174;SDS011;59417;44.788;10.334;2024-01-25T11:08:01;65.80;;;44.38;;
28174;SDS011;59417;44.788;10.334;2024-01-25T11:10:27;67.63;;;44.70;;
28174;SDS011;59417;44.788;10.334;2024-01-25T11:12:58;67.63;;;42.85;;
28174;SDS011;59417;44.788;10.334;2024-01-25T11:15:35;63.28;;;44.22;;
28174;SDS011;59417;44.788;10.334;2024-01-25T11:18:02;69.43;;;46.58;;
28174;SDS011;59417;44.788;10.334;2024-01-25T11:23:03;60.45;;;44.28;;
28174;SDS011;59417;44.788;10.334;2024-01-25T11:25:30;68.28;;;46.67;;
28174;SDS011;59417;44.788;10.334;2024-01-25T11:27:58;64.30;;;48.65;;
28174;SDS011;59417;44.788;10.334;2024-01-25T11:30:32;78.30;;;49.67;;
28174;SDS011;59417;44.788;10.334;2024-01-25T11:32:59;70.40;;;47.13;;
28174;SDS011;59417;44.788;10.334;2024-01-25T11:35:34;74.28;;;49.85;;
28174;SDS011;59417;44.788;10.334;2024-01-25T11:38:03;75.95;;;52.70;;
28174;SDS011;59417;44.788;10.334;2024-01-25T11:40:29;79.47;;;54.45;;
28174;SDS011;59417;44.788;10.334;2024-01-25T11:43:02;84.70;;;57.15;;
28174;SDS011;59417;44.788;10.334;2024-01-25T11:45:36;89.25;;;59.00;;
28174;SDS011;59417;44.788;10.334;2024-01-25T11:48:09;87.35;;;61.92;;
28174;SDS011;59417;44.788;10.334;2024-01-25T11:50:36;85.55;;;57.88;;
28174;SDS011;59417;44.788;10.334;2024-01-25T11:53:04;83.40;;;54.67;;
28174;SDS011;59417;44.788;10.334;2024-01-25T11:55:31;82.93;;;55.10;;
28174;SDS011;59417;44.788;10.334;2024-01-25T11:58:07;82.93;;;56.35;;
28174;SDS011;59417;44.788;10.334;2024-01-25T12:00:39;88.28;;;56.85;;
28174;SDS011;59417;44.788;10.334;2024-01-25T12:03:09;91.30;;;59.13;;
28174;SDS011;59417;44.788;10.334;2024-01-25T12:05:46;83.05;;;58.85;;
28174;SDS011;59417;44.788;10.334;2024-01-25T12:08:26;81.15;;;56.38;;
28174;SDS011;59417;44.788;10.334;2024-01-25T12:11:04;82.22;;;52.53;;
28174;SDS011;59417;44.788;10.334;2024-01-25T12:13:53;87.45;;;57.47;;
28174;SDS011;59417;44.788;10.334;2024-01-25T12:17:06;78.15;;;51.45;;
28174;SDS011;59417;44.788;10.334;2024-01-25T12:19:43;80.78;;;55.25;;
28174;SDS011;59417;44.788;10.334;2024-01-25T12:22:39;79.32;;;53.80;;
28174;SDS011;59417;44.788;10.334;2024-01-25T12:25:09;74.78;;;48.47;;
28174;SDS011;59417;44.788;10.334;2024-01-25T12:27:41;77.38;;;52.13;;
28174;SDS011;59417;44.788;10.334;2024-01-25T12:30:13;74.95;;;52.63;;
28174;SDS011;59417;44.788;10.334;2024-01-25T12:32:54;75.28;;;50.67;;
28174;SDS011;59417;44.788;10.334;2024-01-25T12:35:25;74.07;;;48.90;;
28174;SDS011;59417;44.788;10.334;2024-01-25T12:37:56;71.40;;;50.72;;
28174;SDS011;59417;44.788;10.334;2024-01-25T12:40:32;80.50;;;51.58;;
28174;SDS011;59417;44.788;10.334;2024-01-25T12:43:01;71.72;;;51.70;;
28174;SDS011;59417;44.788;10.334;2024-01-25T12:45:29;80.35;;;51.53;;
28174;SDS011;59417;44.788;10.334;2024-01-25T12:47:57;75.43;;;50.85;;
28174;SDS011;59417;44.788;10.334;2024-01-25T12:50:29;73.18;;;49.90;;
28174;SDS011;59417;44.788;10.334;2024-01-25T12:53:01;80.97;;;49.13;;
28174;SDS011;59417;44.788;10.334;2024-01-25T12:55:30;78.20;;;51.53;;
28174;SDS011;59417;44.788;10.334;2024-01-25T13:01:15;74.22;;;50.13;;
28174;SDS011;59417;44.788;10.334;2024-01-25T13:03:41;75.88;;;51.28;;
28174;SDS011;59417;44.788;10.334;2024-01-25T13:06:08;71.13;;;50.70;;
28174;SDS011;59417;44.788;10.334;2024-01-25T13:08:38;77.35;;;52.08;;
28174;SDS011;59417;44.788;10.334;2024-01-25T13:11:11;78.38;;;50.28;;
28174;SDS011;59417;44.788;10.334;2024-01-25T13:13:37;68.85;;;50.35;;
28174;SDS011;59417;44.788;10.334;2024-01-25T13:16:03;69.93;;;49.78;;
28174;SDS011;59417;44.788;10.334;2024-01-25T13:18:32;72.65;;;52.05;;
28174;SDS011;59417;44.788;10.334;2024-01-25T13:20:57;82.55;;;53.30;;
28174;SDS011;59417;44.788;10.334;2024-01-25T13:23:23;77.65;;;52.35;;
28174;SDS011;59417;44.788;10.334;2024-01-25T13:25:49;71.40;;;51.45;;
28174;SDS011;59417;44.788;10.334;2024-01-25T13:28:17;79.13;;;53.33;;
28174;SDS011;59417;44.788;10.334;2024-01-25T13:30:47;79.15;;;53.42;;
28174;SDS011;59417;44.788;10.334;2024-01-25T13:33:18;86.88;;;54.22;;
28174;SDS011;59417;44.788;10.334;2024-01-25T13:35:48;82.18;;;55.35;;
28174;SDS011;59417;44.788;10.334;2024-01-25T13:38:23;81.65;;;53.88;;
28174;SDS011;59417;44.788;10.334;2024-01-25T13:40:49;86.05;;;57.13;;
28174;SDS011;59417;44.788;10.334;2024-01-25T13:43:16;81.43;;;56.95;;
28174;SDS011;59417;44.788;10.334;2024-01-25T13:45:49;82.32;;;56.03;;
28174;SDS011;59417;44.788;10.334;2024-01-25T13:48:21;82.72;;;57.00;;
28174;SDS011;59417;44.788;10.334;2024-01-25T13:51:02;86.70;;;58.67;;
28174;SDS011;59417;44.788;10.334;2024-01-25T13:53:30;83.53;;;54.97;;
28174;SDS011;59417;44.788;10.334;2024-01-25T13:55:55;75.78;;;55.80;;
28174;SDS011;59417;44.788;10.334;2024-01-25T13:58:25;85.05;;;58.50;;
28174;SDS011;59417;44.788;10.334;2024-01-25T14:00:50;88.00;;;59.72;;
28174;SDS011;59417;44.788;10.334;2024-01-25T14:03:19;96.30;;;60.40;;
28174;SDS011;59417;44.788;10.334;2024-01-25T14:05:45;93.67;;;63.50;;
28174;SDS011;59417;44.788;10.334;2024-01-25T14:08:13;88.97;;;60.45;;
28174;SDS011;59417;44.788;10.334;2024-01-25T14:10:42;84.82;;;61.85;;
28174;SDS011;59417;44.788;10.334;2024-01-25T14:13:13;87.05;;;61.22;;
28174;SDS011;59417;44.788;10.334;2024-01-25T14:15:44;88.95;;;61.30;;
28174;SDS011;59417;44.788;10.334;2024-01-25T14:18:10;88.38;;;62.33;;
28174;SDS011;59417;44.788;10.334;2024-01-25T14:20:39;86.00;;;62.47;;
28174;SDS011;59417;44.788;10.334;2024-01-25T14:23:11;91.82;;;62.45;;
28174;SDS011;59417;44.788;10.334;2024-01-25T14:25:38;96.75;;;64.55;;
28174;SDS011;59417;44.788;10.334;2024-01-25T14:28:04;85.43;;;60.50;;
28174;SDS011;59417;44.788;10.334;2024-01-25T14:30:33;88.53;;;63.72;;
28174;SDS011;59417;44.788;10.334;2024-01-25T14:33:01;94.20;;;63.70;;
28174;SDS011;59417;44.788;10.334;2024-01-25T14:35:32;91.13;;;64.85;;
28174;SDS011;59417;44.788;10.334;2024-01-25T14:38:00;92.22;;;65.95;;